createdAt,value
2022-09-04T00:00:52.475Z,15.31
2022-09-04T00:01:52.430Z,15.31
2022-09-04T00:02:52.417Z,15.27
2022-09-04T00:03:52.607Z,15.35
2022-09-04T00:04:52.616Z,15.25
2022-09-04T00:05:52.587Z,15.19
2022-09-04T00:06:52.380Z,15.18
2022-09-04T00:07:52.378Z,15.19
2022-09-04T00:08:52.368Z,15.21
2022-09-04T00:09:52.420Z,15.15
2022-09-04T00:10:52.429Z,15.18
2022-09-04T00:11:52.409Z,15.17
2022-09-04T00:12:52.365Z,15.10
2022-09-04T00:13:52.370Z,15.10
2022-09-04T00:14:52.352Z,15.17
2022-09-04T00:15:52.344Z,15.10
2022-09-04T00:16:52.470Z,15.07
2022-09-04T00:17:52.311Z,15.15
2022-09-04T00:18:52.369Z,15.03
2022-09-04T00:19:52.323Z,15.04
2022-09-04T00:20:52.311Z,15.00
2022-09-04T00:21:52.312Z,15.07
2022-09-04T00:22:52.346Z,14.92
2022-09-04T00:23:52.371Z,14.99
2022-09-04T00:24:52.298Z,14.97
2022-09-04T00:25:52.283Z,14.97
2022-09-04T00:26:52.272Z,14.99
2022-09-04T00:27:52.266Z,15.02
2022-09-04T00:28:52.296Z,15.02
2022-09-04T00:29:52.265Z,14.99
2022-09-04T00:30:52.338Z,15.02
2022-09-04T00:31:52.241Z,14.97
2022-09-04T00:32:52.240Z,14.89
2022-09-04T00:33:52.227Z,14.94
2022-09-04T00:34:52.214Z,14.92
2022-09-04T00:35:52.230Z,14.89
2022-09-04T00:36:52.229Z,14.91
2022-09-04T00:37:52.199Z,14.92
2022-09-04T00:38:52.191Z,14.92
2022-09-04T00:39:52.248Z,14.92
2022-09-04T00:40:52.179Z,14.92
2022-09-04T00:41:52.165Z,14.92
2022-09-04T00:42:52.139Z,14.94
2022-09-04T00:43:52.145Z,14.91
2022-09-04T00:44:52.153Z,14.92
2022-09-04T00:45:52.193Z,14.96
2022-09-04T00:46:52.130Z,14.94
2022-09-04T00:47:52.167Z,14.85
2022-09-04T00:48:52.151Z,14.82
2022-09-04T00:49:52.149Z,14.81
2022-09-04T00:50:52.109Z,14.81
2022-09-04T00:51:52.143Z,14.79
2022-09-04T00:52:53.704Z,14.70
2022-09-04T00:53:52.201Z,14.68
2022-09-04T00:54:52.100Z,14.65
2022-09-04T00:55:52.203Z,14.70
2022-09-04T00:56:52.077Z,14.58
2022-09-04T00:57:52.067Z,14.62
2022-09-04T00:58:52.057Z,14.62
2022-09-04T00:59:52.081Z,14.55
2022-09-04T01:00:52.065Z,14.63
2022-09-04T01:01:52.134Z,14.62
2022-09-04T01:02:52.020Z,14.62
2022-09-04T01:03:52.021Z,14.68
2022-09-04T01:04:51.981Z,14.63
2022-09-04T01:05:52.010Z,14.55
2022-09-04T01:06:51.980Z,14.63
2022-09-04T01:07:51.995Z,14.69
2022-09-04T01:08:56.203Z,14.60
2022-09-04T01:09:51.945Z,14.59
2022-09-04T01:10:51.952Z,14.65
2022-09-04T01:11:51.933Z,14.60
2022-09-04T01:12:51.947Z,14.59
2022-09-04T01:13:51.936Z,14.66
2022-09-04T01:14:53.015Z,14.69
2022-09-04T01:15:51.922Z,14.60
2022-09-04T01:16:51.975Z,14.58
2022-09-04T01:17:51.916Z,14.58
2022-09-04T01:18:51.882Z,14.65
2022-09-04T01:19:51.929Z,14.65
2022-09-04T01:20:51.963Z,14.58
2022-09-04T01:21:51.911Z,14.55
2022-09-04T01:22:51.906Z,14.50
2022-09-04T01:23:51.902Z,14.55
2022-09-04T01:24:51.883Z,14.53
2022-09-04T01:25:51.885Z,14.51
2022-09-04T01:26:51.879Z,14.44
2022-09-04T01:27:51.869Z,14.44
2022-09-04T01:28:51.841Z,14.40
2022-09-04T01:29:51.864Z,14.41
2022-09-04T01:30:51.841Z,14.43
2022-09-04T01:31:51.911Z,14.26
2022-09-04T01:32:51.805Z,14.26
2022-09-04T01:33:51.803Z,14.33
2022-09-04T01:34:51.818Z,14.28
2022-09-04T01:35:51.802Z,14.32
2022-09-04T01:36:51.811Z,14.30
2022-09-04T01:37:51.787Z,14.23
2022-09-04T01:38:51.772Z,14.26
2022-09-04T01:39:51.796Z,14.18
2022-09-04T01:40:51.756Z,14.14
2022-09-04T01:41:51.729Z,14.10
2022-09-04T01:42:51.753Z,14.04
2022-09-04T01:43:51.749Z,14.05
2022-09-04T01:44:51.730Z,14.08
2022-09-04T01:45:51.784Z,14.15
2022-09-04T01:46:51.703Z,14.03
2022-09-04T01:47:51.691Z,14.15
2022-09-04T01:48:51.711Z,14.15
2022-09-04T01:49:51.669Z,14.15
2022-09-04T01:50:51.673Z,14.12
2022-09-04T01:51:51.663Z,14.14
2022-09-04T01:52:51.653Z,14.12
2022-09-04T01:53:51.650Z,14.14
2022-09-04T01:54:51.662Z,14.18
2022-09-04T01:55:51.671Z,14.20
2022-09-04T01:56:51.629Z,14.12
2022-09-04T01:57:51.609Z,14.15
2022-09-04T01:58:51.629Z,14.10
2022-09-04T01:59:53.708Z,14.07
2022-09-04T02:00:51.615Z,14.03
2022-09-04T02:01:51.618Z,14.03
2022-09-04T02:02:52.109Z,14.05
2022-09-04T02:03:51.569Z,13.99
2022-09-04T02:04:51.562Z,13.99
2022-09-04T02:05:51.546Z,14.00
2022-09-04T02:06:51.568Z,13.97
2022-09-04T02:07:51.552Z,13.97
2022-09-04T02:08:51.567Z,13.95
2022-09-04T02:09:53.906Z,13.95
2022-09-04T02:10:51.570Z,13.89
2022-09-04T02:11:51.507Z,13.93
2022-09-04T02:12:51.563Z,13.87
2022-09-04T02:13:51.559Z,13.87
2022-09-04T02:14:51.522Z,13.96
2022-09-04T02:15:51.513Z,13.89
2022-09-04T02:16:51.490Z,13.93
2022-09-04T02:17:51.457Z,13.87
2022-09-04T02:18:51.479Z,13.89
2022-09-04T02:19:51.471Z,13.86
2022-09-04T02:20:51.475Z,13.79
2022-09-04T02:21:51.459Z,13.85
2022-09-04T02:22:51.458Z,13.92
2022-09-04T02:23:51.469Z,13.89
2022-09-04T02:24:51.431Z,13.87
2022-09-04T02:25:51.440Z,13.90
2022-09-04T02:26:51.425Z,13.77
2022-09-04T02:27:51.421Z,13.83
2022-09-04T02:28:51.410Z,13.85
2022-09-04T02:29:51.429Z,13.86
2022-09-04T02:30:54.255Z,13.79
2022-09-04T02:31:51.429Z,13.86
2022-09-04T02:32:51.388Z,13.85
2022-09-04T02:33:51.383Z,13.75
2022-09-04T02:34:51.371Z,13.75
2022-09-04T02:35:51.353Z,13.72
2022-09-04T02:36:51.389Z,13.74
2022-09-04T02:37:51.353Z,13.75
2022-09-04T02:38:51.324Z,13.74
2022-09-04T02:39:51.423Z,13.77
2022-09-04T02:40:51.347Z,13.77
2022-09-04T02:41:51.354Z,13.74
2022-09-04T02:42:51.299Z,13.86
2022-09-04T02:43:51.305Z,13.75
2022-09-04T02:44:51.308Z,13.74
2022-09-04T02:45:51.287Z,13.86
2022-09-04T02:46:51.387Z,13.75
2022-09-04T02:47:51.272Z,13.90
2022-09-04T02:48:51.285Z,13.74
2022-09-04T02:49:51.232Z,13.79
2022-09-04T02:50:51.261Z,13.78
2022-09-04T02:51:51.223Z,13.78
2022-09-04T02:52:51.228Z,13.79
2022-09-04T02:53:51.212Z,13.70
2022-09-04T02:54:51.230Z,13.65
2022-09-04T02:55:51.215Z,13.65
2022-09-04T02:56:51.240Z,13.62
2022-09-04T02:57:51.190Z,13.65
2022-09-04T02:58:51.194Z,13.67
2022-09-04T02:59:51.395Z,13.70
2022-09-04T03:00:51.183Z,13.67
2022-09-04T03:01:51.206Z,13.56
2022-09-04T03:02:51.157Z,13.54
2022-09-04T03:03:51.149Z,13.47
2022-09-04T03:04:51.141Z,13.50
2022-09-04T03:05:51.120Z,13.47
2022-09-04T03:06:51.127Z,13.42
2022-09-04T03:07:51.123Z,13.33
2022-09-04T03:08:51.601Z,13.38
2022-09-04T03:09:51.081Z,13.44
2022-09-04T03:10:51.086Z,13.44
2022-09-04T03:11:51.072Z,13.44
2022-09-04T03:12:51.115Z,13.42
2022-09-04T03:13:51.062Z,13.37
2022-09-04T03:14:51.080Z,13.42
2022-09-04T03:15:51.079Z,13.44
2022-09-04T03:16:51.059Z,13.47
2022-09-04T03:17:51.021Z,13.49
2022-09-04T03:18:51.065Z,13.46
2022-09-04T03:19:51.050Z,13.47
2022-09-04T03:20:51.015Z,13.44
2022-09-04T03:21:51.054Z,13.41
2022-09-04T03:22:51.022Z,13.44
2022-09-04T03:23:51.000Z,13.39
2022-09-04T03:24:51.001Z,13.35
2022-09-04T03:25:51.001Z,13.35
2022-09-04T03:26:50.977Z,13.33
2022-09-04T03:27:51.018Z,13.37
2022-09-04T03:28:50.954Z,13.31
2022-09-04T03:29:50.978Z,13.35
2022-09-04T03:30:50.933Z,13.37
2022-09-04T03:31:51.082Z,13.30
2022-09-04T03:32:50.928Z,13.35
2022-09-04T03:33:50.923Z,13.27
2022-09-04T03:34:50.913Z,13.28
2022-09-04T03:35:50.906Z,13.27
2022-09-04T03:36:50.912Z,13.23
2022-09-04T03:37:50.884Z,13.25
2022-09-04T03:38:50.872Z,13.22
2022-09-04T03:39:50.919Z,13.25
2022-09-04T03:40:50.871Z,13.23
2022-09-04T03:41:50.857Z,13.18
2022-09-04T03:42:50.859Z,13.11
2022-09-04T03:43:50.840Z,13.15
2022-09-04T03:44:52.310Z,13.09
2022-09-04T03:45:50.847Z,13.13
2022-09-04T03:46:50.916Z,13.13
2022-09-04T03:47:50.806Z,13.13
2022-09-04T03:48:50.818Z,13.08
2022-09-04T03:49:50.782Z,13.12
2022-09-04T03:50:50.782Z,13.08
2022-09-04T03:51:50.784Z,13.04
2022-09-04T03:52:50.817Z,13.05
2022-09-04T03:53:50.778Z,13.04
2022-09-04T03:54:50.746Z,13.09
2022-09-04T03:55:50.740Z,13.11
2022-09-04T03:56:50.727Z,13.04
2022-09-04T03:57:50.734Z,13.04
2022-09-04T03:58:50.760Z,13.13
2022-09-04T03:59:50.713Z,13.11
2022-09-04T04:00:50.724Z,13.11
2022-09-04T04:01:50.693Z,13.11
2022-09-04T04:02:50.866Z,13.27
2022-09-04T04:03:50.677Z,13.12
2022-09-04T04:04:50.664Z,13.18
2022-09-04T04:05:50.839Z,13.16
2022-09-04T04:06:50.649Z,13.19
2022-09-04T04:07:50.641Z,13.13
2022-09-04T04:08:50.644Z,13.11
2022-09-04T04:09:50.631Z,13.08
2022-09-04T04:10:50.711Z,13.08
2022-09-04T04:11:50.613Z,13.05
2022-09-04T04:12:50.653Z,13.09
2022-09-04T04:13:50.603Z,13.01
2022-09-04T04:14:50.592Z,13.00
2022-09-04T04:15:50.656Z,13.00
2022-09-04T04:16:56.292Z,13.05
2022-09-04T04:17:50.574Z,12.94
2022-09-04T04:18:50.567Z,12.91
2022-09-04T04:19:50.580Z,13.00
2022-09-04T04:20:50.595Z,12.94
2022-09-04T04:21:50.576Z,13.04
2022-09-04T04:22:50.565Z,12.93
2022-09-04T04:23:50.533Z,12.95
2022-09-04T04:24:50.522Z,13.03
2022-09-04T04:25:52.574Z,13.00
2022-09-04T04:26:54.187Z,13.01
2022-09-04T04:27:50.503Z,13.08
2022-09-04T04:28:50.521Z,13.04
2022-09-04T04:29:50.515Z,13.11
2022-09-04T04:30:50.473Z,13.09
2022-09-04T04:31:50.566Z,13.11
2022-09-04T04:32:50.481Z,13.05
2022-09-04T04:33:50.440Z,13.05
2022-09-04T04:34:50.445Z,13.05
2022-09-04T04:35:50.455Z,13.04
2022-09-04T04:36:50.448Z,13.04
2022-09-04T04:37:50.423Z,13.08
2022-09-04T04:38:50.411Z,13.08
2022-09-04T04:39:50.491Z,13.11
2022-09-04T04:40:50.395Z,13.09
2022-09-04T04:41:50.380Z,13.09
2022-09-04T04:42:50.373Z,13.13
2022-09-04T04:43:50.387Z,13.13
2022-09-04T04:44:50.352Z,13.19
2022-09-04T04:45:50.405Z,13.16
2022-09-04T04:46:50.396Z,13.27
2022-09-04T04:47:50.379Z,13.27
2022-09-04T04:48:50.320Z,13.19
2022-09-04T04:49:50.350Z,13.28
2022-09-04T04:50:50.301Z,13.28
2022-09-04T04:51:50.327Z,13.28
2022-09-04T04:52:50.290Z,13.28
2022-09-04T04:53:50.327Z,13.22
2022-09-04T04:54:50.326Z,13.25
2022-09-04T04:55:50.283Z,13.30
2022-09-04T04:56:50.310Z,13.35
2022-09-04T04:57:50.285Z,13.31
2022-09-04T04:58:50.397Z,13.37
2022-09-04T04:59:50.288Z,13.35
2022-09-04T05:00:50.377Z,13.42
2022-09-04T05:01:50.468Z,13.35
2022-09-04T05:02:50.383Z,13.41
2022-09-04T05:03:50.244Z,13.35
2022-09-04T05:04:50.308Z,13.39
2022-09-04T05:05:50.209Z,13.31
2022-09-04T05:06:50.195Z,13.31
2022-09-04T05:07:50.197Z,13.20
2022-09-04T05:08:50.215Z,13.23
2022-09-04T05:09:50.204Z,13.25
2022-09-04T05:10:50.209Z,13.27
2022-09-04T05:11:50.171Z,13.27
2022-09-04T05:12:50.157Z,13.22
2022-09-04T05:13:51.692Z,13.28
2022-09-04T05:14:50.179Z,13.28
2022-09-04T05:16:08.078Z,13.25
2022-09-04T05:16:54.844Z,13.30
2022-09-04T05:17:50.132Z,13.30
2022-09-04T05:18:50.152Z,13.25
2022-09-04T05:19:52.261Z,13.23
2022-09-04T05:20:50.107Z,13.30
2022-09-04T05:21:50.103Z,13.20
2022-09-04T05:22:50.105Z,13.22
2022-09-04T05:23:50.125Z,13.22
2022-09-04T05:24:50.141Z,13.31
2022-09-04T05:25:50.066Z,13.35
2022-09-04T05:26:50.095Z,13.41
2022-09-04T05:27:50.049Z,13.46
2022-09-04T05:28:50.043Z,13.47
2022-09-04T05:29:50.029Z,13.49
2022-09-04T05:30:50.159Z,13.50
2022-09-04T05:31:50.021Z,13.53
2022-09-04T05:32:50.243Z,13.50
2022-09-04T05:33:49.979Z,13.46
2022-09-04T05:34:49.985Z,13.52
2022-09-04T05:35:49.979Z,13.47
2022-09-04T05:36:49.986Z,13.56
2022-09-04T05:37:50.027Z,13.49
2022-09-04T05:38:50.001Z,13.62
2022-09-04T05:39:50.111Z,13.65
2022-09-04T05:40:49.981Z,13.62
2022-09-04T05:41:49.963Z,13.63
2022-09-04T05:42:49.941Z,13.70
2022-09-04T05:43:49.958Z,13.59
2022-09-04T05:44:49.891Z,13.57
2022-09-04T05:45:49.913Z,13.59
2022-09-04T05:46:51.793Z,13.56
2022-09-04T05:47:49.888Z,13.53
2022-09-04T05:48:49.892Z,13.44
2022-09-04T05:49:49.890Z,13.47
2022-09-04T05:50:49.868Z,13.56
2022-09-04T05:51:49.838Z,13.46
2022-09-04T05:52:49.861Z,13.52
2022-09-04T05:53:49.880Z,13.47
2022-09-04T05:54:49.843Z,13.57
2022-09-04T05:55:49.839Z,13.57
2022-09-04T05:56:49.882Z,13.65
2022-09-04T05:57:49.818Z,13.60
2022-09-04T05:58:49.805Z,13.60
2022-09-04T05:59:49.812Z,13.67
2022-09-04T06:00:49.790Z,13.74
2022-09-04T06:01:51.981Z,13.72
2022-09-04T06:02:49.874Z,13.71
2022-09-04T06:03:49.760Z,13.75
2022-09-04T06:04:49.769Z,13.85
2022-09-04T06:05:49.744Z,13.83
2022-09-04T06:06:49.717Z,13.92
2022-09-04T06:07:49.715Z,13.85
2022-09-04T06:08:49.710Z,13.86
2022-09-04T06:09:49.715Z,13.83
2022-09-04T06:10:49.712Z,13.81
2022-09-04T06:11:49.692Z,13.78
2022-09-04T06:12:49.700Z,13.83
2022-09-04T06:13:49.700Z,13.77
2022-09-04T06:14:49.681Z,13.74
2022-09-04T06:15:49.863Z,13.75
2022-09-04T06:16:49.659Z,13.83
2022-09-04T06:17:49.654Z,13.90
2022-09-04T06:18:49.645Z,14.03
2022-09-04T06:19:49.646Z,14.07
2022-09-04T06:20:49.680Z,14.20
2022-09-04T06:21:49.809Z,14.22
2022-09-04T06:22:53.816Z,14.23
2022-09-04T06:23:49.664Z,14.17
2022-09-04T06:24:49.623Z,14.20
2022-09-04T06:25:49.656Z,14.28
2022-09-04T06:26:49.574Z,14.45
2022-09-04T06:27:49.576Z,14.60
2022-09-04T06:28:49.613Z,14.63
2022-09-04T06:29:49.570Z,14.69
2022-09-04T06:30:49.640Z,14.96
2022-09-04T06:31:49.554Z,15.00
2022-09-04T06:32:49.674Z,15.03
2022-09-04T06:33:49.543Z,15.21
2022-09-04T06:34:49.538Z,15.31
2022-09-04T06:35:49.531Z,15.40
2022-09-04T06:36:49.521Z,15.49
2022-09-04T06:37:49.508Z,15.61
2022-09-04T06:38:49.504Z,15.37
2022-09-04T06:39:49.881Z,15.19
2022-09-04T06:40:49.490Z,15.31
2022-09-04T06:41:49.489Z,15.35
2022-09-04T06:42:49.476Z,15.43
2022-09-04T06:43:49.472Z,15.51
2022-09-04T06:44:49.534Z,15.58
2022-09-04T06:45:49.518Z,15.70
2022-09-04T06:46:49.506Z,15.80
2022-09-04T06:47:49.502Z,16.05
2022-09-04T06:48:49.446Z,16.17
2022-09-04T06:49:49.449Z,16.31
2022-09-04T06:50:49.432Z,16.29
2022-09-04T06:51:49.434Z,16.08
2022-09-04T06:52:49.420Z,15.90
2022-09-04T06:53:49.420Z,15.80
2022-09-04T06:54:49.610Z,16.04
2022-09-04T06:55:49.438Z,16.16
2022-09-04T06:56:49.401Z,16.31
2022-09-04T06:57:49.389Z,16.42
2022-09-04T06:58:49.378Z,16.71
2022-09-04T06:59:49.380Z,16.66
2022-09-04T07:00:49.379Z,16.61
2022-09-04T07:01:49.451Z,16.50
2022-09-04T07:02:49.746Z,16.47
2022-09-04T07:03:49.370Z,16.51
2022-09-04T07:04:49.360Z,16.56
2022-09-04T07:05:49.331Z,16.75
2022-09-04T07:06:49.347Z,16.83
2022-09-04T07:07:49.334Z,16.97
2022-09-04T07:08:49.461Z,17.19
2022-09-04T07:09:49.319Z,17.44
2022-09-04T07:10:49.356Z,17.60
2022-09-04T07:11:49.430Z,17.64
2022-09-04T07:12:49.402Z,17.79
2022-09-04T07:13:49.360Z,17.87
2022-09-04T07:14:49.310Z,18.01
2022-09-04T07:15:49.339Z,18.01
2022-09-04T07:16:49.293Z,18.03
2022-09-04T07:17:49.327Z,17.97
2022-09-04T07:18:49.351Z,18.08
2022-09-04T07:19:49.276Z,18.11
2022-09-04T07:20:49.479Z,18.20
2022-09-04T07:21:49.276Z,18.31
2022-09-04T07:22:49.317Z,18.40
2022-09-04T07:23:49.319Z,18.18
2022-09-04T07:24:49.482Z,18.25
2022-09-04T07:25:49.292Z,18.16
2022-09-04T07:26:49.272Z,18.28
2022-09-04T07:27:49.273Z,18.65
2022-09-04T07:28:49.354Z,18.68
2022-09-04T07:29:49.297Z,18.68
2022-09-04T07:30:49.242Z,18.90
2022-09-04T07:31:49.315Z,18.95
2022-09-04T07:32:49.219Z,19.02
2022-09-04T07:33:49.308Z,18.92
2022-09-04T07:34:49.204Z,19.14
2022-09-04T07:35:49.232Z,19.21
2022-09-04T07:36:49.223Z,19.39
2022-09-04T07:37:49.182Z,19.34
2022-09-04T07:38:50.475Z,19.54
2022-09-04T07:39:49.319Z,19.41
2022-09-04T07:40:49.185Z,19.56
2022-09-04T07:41:49.203Z,19.85
2022-09-04T07:42:49.196Z,20.10
2022-09-04T07:43:52.671Z,20.28
2022-09-04T07:44:49.181Z,20.40
2022-09-04T07:45:49.223Z,20.10
2022-09-04T07:46:49.187Z,20.07
2022-09-04T07:47:49.188Z,20.10
2022-09-04T07:48:49.221Z,20.32
2022-09-04T07:49:49.171Z,20.34
2022-09-04T07:50:49.177Z,20.59
2022-09-04T07:51:49.185Z,20.43
2022-09-04T07:52:49.168Z,20.37
2022-09-04T07:53:49.180Z,20.24
2022-09-04T07:54:49.157Z,20.37
2022-09-04T07:55:49.220Z,20.16
2022-09-04T07:56:49.149Z,20.02
2022-09-04T07:57:49.143Z,20.11
2022-09-04T07:58:49.193Z,20.34
2022-09-04T07:59:49.372Z,20.50
2022-09-04T08:00:49.748Z,20.80
2022-09-04T08:01:49.196Z,21.00
2022-09-04T08:02:49.166Z,21.03
2022-09-04T08:03:54.347Z,21.18
2022-09-04T08:04:49.206Z,21.60
2022-09-04T08:05:49.137Z,21.75
2022-09-04T08:06:49.264Z,21.93
2022-09-04T08:07:49.160Z,22.25
2022-09-04T08:08:49.184Z,22.51
2022-09-04T08:09:49.181Z,22.68
2022-09-04T08:10:49.160Z,22.70
2022-09-04T08:11:49.146Z,22.84
2022-09-04T08:12:49.159Z,22.84
2022-09-04T08:13:49.203Z,23.00
2022-09-04T08:14:49.159Z,23.31
2022-09-04T08:15:49.252Z,23.56
2022-09-04T08:16:49.175Z,23.74
2022-09-04T08:17:49.178Z,23.77
2022-09-04T08:18:49.175Z,23.93
2022-09-04T08:19:49.193Z,24.10
2022-09-04T08:20:49.162Z,24.21
2022-09-04T08:21:49.222Z,23.86
2022-09-04T08:22:49.178Z,23.66
2022-09-04T08:23:49.387Z,23.39
2022-09-04T08:24:49.166Z,23.28
2022-09-04T08:25:49.292Z,23.46
2022-09-04T08:26:49.161Z,23.09
2022-09-04T08:27:49.306Z,22.69
2022-09-04T08:28:49.173Z,22.84
2022-09-04T08:29:49.444Z,22.76
2022-09-04T08:30:49.261Z,22.98
2022-09-04T08:31:49.252Z,23.28
2022-09-04T08:32:49.185Z,23.41
2022-09-04T08:33:49.242Z,23.59
2022-09-04T08:34:49.174Z,23.65
2022-09-04T08:35:49.259Z,23.91
2022-09-04T08:36:49.186Z,23.83
2022-09-04T08:37:49.258Z,23.93
2022-09-04T08:38:49.244Z,24.10
2022-09-04T08:39:49.346Z,23.96
2022-09-04T08:40:50.186Z,24.10
2022-09-04T08:41:49.263Z,24.24
2022-09-04T08:42:49.292Z,24.36
2022-09-04T08:43:49.267Z,24.68
2022-09-04T08:44:49.503Z,24.24
2022-09-04T08:45:49.289Z,24.20
2022-09-04T08:46:49.633Z,24.50
2022-09-04T08:47:49.246Z,24.85
2022-09-04T08:48:49.293Z,24.74
2022-09-04T08:49:49.256Z,24.43
2022-09-04T08:50:49.263Z,24.55
2022-09-04T08:51:49.257Z,24.66
2022-09-04T08:52:49.294Z,24.88
2022-09-04T08:53:49.243Z,24.57
2022-09-04T08:54:49.243Z,24.69
2022-09-04T08:55:49.255Z,24.91
2022-09-04T08:56:49.235Z,25.17
2022-09-04T08:57:49.198Z,25.69
2022-09-04T08:58:49.299Z,25.90
2022-09-04T08:59:49.218Z,25.33
2022-09-04T09:00:49.208Z,25.01
2022-09-04T09:01:49.282Z,24.84
2022-09-04T09:02:49.294Z,25.01
2022-09-04T09:03:49.234Z,25.03
2022-09-04T09:04:49.219Z,24.95
2022-09-04T09:05:49.191Z,25.26
2022-09-04T09:06:49.234Z,25.55
2022-09-04T09:07:49.212Z,25.66
2022-09-04T09:08:49.233Z,25.66
2022-09-04T09:09:49.292Z,25.96
2022-09-04T09:10:49.199Z,25.98
2022-09-04T09:12:49.198Z,26.25
2022-09-04T09:13:49.270Z,26.59
2022-09-04T09:14:51.818Z,26.58
2022-09-04T09:15:49.329Z,26.09
2022-09-04T09:16:49.216Z,26.21
2022-09-04T09:19:10.390Z,25.88
2022-09-04T09:20:10.492Z,26.00
2022-09-04T09:21:10.358Z,26.13
2022-09-04T09:22:10.332Z,26.33
2022-09-04T09:23:12.830Z,26.37
2022-09-04T09:24:10.353Z,26.18
2022-09-04T09:25:10.420Z,26.10
2022-09-04T09:26:10.363Z,26.28
2022-09-04T09:27:10.347Z,26.34
2022-09-04T09:28:10.357Z,26.31
2022-09-04T09:29:10.354Z,26.21
2022-09-04T09:30:10.904Z,26.15
2022-09-04T09:31:10.435Z,25.81
2022-09-04T09:32:10.323Z,25.66
2022-09-04T09:33:10.325Z,25.43
2022-09-04T09:34:10.339Z,25.59
2022-09-04T09:35:10.388Z,25.77
2022-09-04T09:36:10.306Z,26.00
2022-09-04T09:37:10.350Z,26.13
2022-09-04T09:38:10.328Z,26.40
2022-09-04T09:39:10.360Z,26.48
2022-09-04T09:40:10.481Z,26.28
2022-09-04T09:41:10.311Z,26.06
2022-09-04T09:42:10.337Z,26.05
2022-09-04T09:43:10.302Z,26.19
2022-09-04T09:44:10.302Z,26.22
2022-09-04T09:45:10.450Z,26.05
2022-09-04T09:46:10.387Z,26.13
2022-09-04T09:48:11.821Z,26.41
2022-09-04T09:49:15.016Z,26.15
2022-09-04T09:50:10.449Z,26.00
2022-09-04T09:51:10.298Z,25.91
2022-09-04T09:52:10.315Z,25.88
2022-09-04T09:53:10.289Z,25.51
2022-09-04T09:54:10.329Z,25.23
2022-09-04T09:55:10.454Z,25.25
2022-09-04T09:56:10.338Z,25.22
2022-09-04T09:57:10.272Z,25.33
2022-09-04T09:58:10.348Z,25.53
2022-09-04T09:59:10.332Z,25.70
2022-09-04T10:00:10.432Z,25.53
2022-09-04T10:01:10.274Z,25.22
2022-09-04T10:02:10.399Z,25.07
2022-09-04T10:03:10.261Z,25.29
2022-09-04T10:04:10.266Z,25.26
2022-09-04T10:05:10.577Z,25.29
2022-09-04T10:06:10.275Z,25.21
2022-09-04T10:07:10.421Z,25.23
2022-09-04T10:08:10.864Z,25.32
2022-09-04T10:09:10.794Z,25.32
2022-09-04T10:10:10.442Z,25.65
2022-09-04T10:11:10.330Z,25.62
2022-09-04T10:12:10.511Z,25.59
2022-09-04T10:13:10.625Z,25.65
2022-09-04T10:14:10.508Z,25.73
2022-09-04T10:15:10.639Z,25.90
2022-09-04T10:16:10.328Z,25.83
2022-09-04T10:17:10.279Z,25.91
2022-09-04T10:18:10.404Z,25.75
2022-09-04T10:19:10.251Z,25.69
2022-09-04T10:20:10.381Z,25.60
2022-09-04T10:21:10.492Z,25.59
2022-09-04T10:22:10.261Z,25.68
2022-09-04T10:23:10.228Z,25.69
2022-09-04T10:24:10.239Z,25.96
2022-09-04T10:25:10.401Z,25.77
2022-09-04T10:26:10.247Z,25.93
2022-09-04T10:27:10.232Z,25.73
2022-09-04T10:28:10.503Z,25.90
2022-09-04T10:29:10.423Z,26.25
2022-09-04T10:30:10.495Z,26.59
2022-09-04T10:31:10.481Z,26.23
2022-09-04T10:32:10.543Z,26.10
2022-09-04T10:33:11.910Z,26.10
2022-09-04T10:34:10.241Z,25.90
2022-09-04T10:35:10.359Z,25.84
2022-09-04T10:36:10.210Z,25.66
2022-09-04T10:37:10.241Z,25.63
2022-09-04T10:38:10.252Z,25.62
2022-09-04T10:39:10.246Z,25.77
2022-09-04T10:40:10.476Z,25.73
2022-09-04T10:41:10.248Z,25.75
2022-09-04T10:42:10.226Z,26.13
2022-09-04T10:43:10.219Z,26.03
2022-09-04T10:44:10.244Z,26.29
2022-09-04T10:45:10.262Z,26.44
2022-09-04T10:46:10.253Z,26.45
2022-09-04T10:47:10.215Z,26.53
2022-09-04T10:48:10.235Z,26.59
2022-09-04T10:49:10.238Z,26.63
2022-09-04T10:50:10.344Z,26.45
2022-09-04T10:51:10.187Z,26.19
2022-09-04T10:52:10.198Z,25.96
2022-09-04T10:53:10.245Z,25.75
2022-09-04T10:54:10.222Z,25.80
2022-09-04T10:55:10.653Z,25.96
2022-09-04T10:56:10.163Z,25.59
2022-09-04T10:57:10.392Z,25.66
2022-09-04T10:58:10.190Z,25.65
2022-09-04T10:59:10.168Z,25.77
2022-09-04T11:00:10.313Z,25.90
2022-09-04T11:01:10.230Z,26.00
2022-09-04T11:02:10.206Z,25.91
2022-09-04T11:03:10.161Z,25.87
2022-09-04T11:04:10.166Z,26.03
2022-09-04T11:05:10.239Z,26.09
2022-09-04T11:06:10.187Z,26.18
2022-09-04T11:07:10.164Z,26.16
2022-09-04T11:08:10.187Z,26.15
2022-09-04T11:09:10.133Z,26.28
2022-09-04T11:10:10.293Z,26.51
2022-09-04T11:11:10.141Z,26.70
2022-09-04T11:12:10.456Z,26.85
2022-09-04T11:13:10.134Z,26.84
2022-09-04T11:14:10.161Z,26.88
2022-09-04T11:15:10.311Z,26.95
2022-09-04T11:16:10.216Z,26.73
2022-09-04T11:17:10.315Z,26.68
2022-09-04T11:18:10.172Z,26.70
2022-09-04T11:19:10.299Z,26.55
2022-09-04T11:20:10.279Z,26.65
2022-09-04T11:21:10.128Z,26.77
2022-09-04T11:22:10.174Z,26.93
2022-09-04T11:23:10.157Z,27.10
2022-09-04T11:24:10.155Z,27.20
2022-09-04T11:25:10.285Z,27.26
2022-09-04T11:26:10.152Z,27.14
2022-09-04T11:27:10.225Z,27.27
2022-09-04T11:28:10.121Z,27.47
2022-09-04T11:29:10.260Z,27.64
2022-09-04T11:30:10.292Z,27.86
2022-09-04T11:31:10.299Z,27.86
2022-09-04T11:32:10.127Z,27.65
2022-09-04T11:33:10.159Z,27.18
2022-09-04T11:34:10.247Z,27.10
2022-09-04T11:35:10.549Z,27.18
2022-09-04T11:36:10.244Z,27.17
2022-09-04T11:37:10.441Z,27.02
2022-09-04T11:38:10.246Z,26.90
2022-09-04T11:39:10.126Z,26.60
2022-09-04T11:40:10.618Z,26.45
2022-09-04T11:41:10.123Z,26.55
2022-09-04T11:42:10.086Z,26.41
2022-09-04T11:43:10.096Z,26.48
2022-09-04T11:44:10.109Z,26.47
2022-09-04T11:45:10.273Z,26.63
2022-09-04T11:46:10.263Z,26.71
2022-09-04T11:47:10.082Z,26.59
2022-09-04T11:48:10.096Z,26.51
2022-09-04T11:49:10.076Z,26.45
2022-09-04T11:50:10.253Z,26.63
2022-09-04T11:51:10.087Z,26.63
2022-09-04T11:52:10.087Z,26.75
2022-09-04T11:53:10.084Z,26.60
2022-09-04T11:54:10.065Z,26.65
2022-09-04T11:55:10.334Z,26.74
2022-09-04T11:56:10.094Z,26.77
2022-09-04T11:57:10.099Z,26.83
2022-09-04T11:58:10.090Z,26.73
2022-09-04T11:59:10.058Z,26.75
2022-09-04T12:00:10.227Z,26.71
2022-09-04T12:01:10.328Z,26.48
2022-09-04T12:02:10.105Z,26.59
2022-09-04T12:03:10.264Z,26.48
2022-09-04T12:04:10.120Z,26.52
2022-09-04T12:05:10.189Z,26.59
2022-09-04T12:06:10.061Z,26.47
2022-09-04T12:07:10.066Z,26.58
2022-09-04T12:08:10.071Z,26.58
2022-09-04T12:09:10.038Z,26.55
2022-09-04T12:10:10.304Z,26.53
2022-09-04T12:11:10.236Z,26.41
2022-09-04T12:12:10.035Z,26.53
2022-09-04T12:13:15.302Z,26.65
2022-09-04T12:14:10.065Z,26.63
2022-09-04T12:15:10.271Z,26.68
2022-09-04T12:16:10.127Z,26.77
2022-09-04T12:20:07.855Z,27.29
2022-09-04T12:21:05.757Z,27.08
2022-09-04T12:22:05.736Z,27.03
2022-09-04T12:23:05.743Z,26.93
2022-09-04T12:24:05.818Z,26.88
2022-09-04T12:25:05.857Z,26.85
2022-09-04T12:26:05.781Z,26.90
2022-09-04T12:27:05.743Z,26.93
2022-09-04T12:28:05.874Z,27.17
2022-09-04T12:29:05.771Z,27.37
2022-09-04T12:30:05.930Z,27.55
2022-09-04T12:31:05.730Z,27.49
2022-09-04T12:32:05.819Z,27.70
2022-09-04T12:33:08.222Z,27.82
2022-09-04T12:34:05.745Z,27.85
2022-09-04T12:35:05.774Z,27.90
2022-09-04T12:36:05.799Z,28.08
2022-09-04T12:37:05.744Z,28.17
2022-09-04T12:38:05.769Z,28.26
2022-09-04T12:40:08.363Z,28.25
2022-09-04T12:41:08.139Z,28.19
2022-09-04T12:42:08.191Z,28.15
2022-09-04T12:43:08.130Z,28.14
2022-09-04T12:44:08.152Z,28.10
2022-09-04T12:45:08.196Z,28.15
2022-09-04T12:46:08.389Z,28.19
2022-09-04T12:47:08.135Z,28.12
2022-09-04T12:48:08.411Z,27.95
2022-09-04T12:49:08.147Z,27.83
2022-09-04T12:50:08.280Z,27.77
2022-09-04T12:51:08.136Z,27.87
2022-09-04T12:52:08.168Z,27.78
2022-09-04T12:53:08.157Z,27.71
2022-09-04T12:54:08.138Z,27.83
2022-09-04T12:55:08.300Z,27.83
2022-09-04T12:56:08.171Z,27.86
2022-09-04T12:57:08.175Z,27.85
2022-09-04T12:58:08.124Z,28.00
2022-09-04T12:59:16.056Z,27.86
2022-09-04T13:00:08.365Z,27.48